createdAt,value
2022-09-09T00:01:55.106Z,13.70
2022-09-09T00:04:22.086Z,13.70
2022-09-09T00:06:57.884Z,13.70
2022-09-09T00:09:28.706Z,13.60
2022-09-09T00:11:59.552Z,13.50
2022-09-09T00:14:44.098Z,13.50
2022-09-09T00:17:16.336Z,13.60
2022-09-09T00:19:47.662Z,13.60
2022-09-09T00:22:19.124Z,13.60
2022-09-09T00:24:54.529Z,13.70
2022-09-09T00:27:39.085Z,13.60
2022-09-09T00:30:23.897Z,13.70
2022-09-09T00:32:53.321Z,13.60
2022-09-09T00:35:23.974Z,13.60
2022-09-09T00:37:52.975Z,13.60
2022-09-09T00:40:30.591Z,13.60
2022-09-09T00:43:09.926Z,13.60
2022-09-09T00:45:55.524Z,13.60
2022-09-09T00:48:26.155Z,13.50
2022-09-09T00:50:53.421Z,13.50
2022-09-09T00:53:39.554Z,13.60
2022-09-09T00:56:20.357Z,13.50
2022-09-09T00:58:59.692Z,13.50
2022-09-09T01:01:26.958Z,13.50
2022-09-09T01:03:55.020Z,13.50
2022-09-09T01:06:27.387Z,13.50
2022-09-09T01:09:12.674Z,13.40
2022-09-09T01:11:58.179Z,13.40
2022-09-09T01:14:31.736Z,13.50
2022-09-09T01:17:00.961Z,13.50
2022-09-09T01:19:55.235Z,13.50
2022-09-09T01:22:40.408Z,13.50
2022-09-09T01:25:07.490Z,13.50
2022-09-09T01:27:36.115Z,13.50
2022-09-09T01:30:06.171Z,13.50
2022-09-09T01:32:44.027Z,13.50
2022-09-09T01:35:28.537Z,13.50
2022-09-09T01:37:55.542Z,13.50
2022-09-09T01:40:22.516Z,13.50
2022-09-09T01:42:49.859Z,13.60
2022-09-09T01:45:16.883Z,13.70
2022-09-09T01:47:44.301Z,13.70
2022-09-09T01:50:12.736Z,13.70
2022-09-09T01:52:39.751Z,13.70
2022-09-09T01:55:07.090Z,13.70
2022-09-09T01:58:05.919Z,13.80
2022-09-09T02:00:34.068Z,13.70
2022-09-09T02:03:01.121Z,13.70
2022-09-09T02:05:30.742Z,13.70
2022-09-09T02:08:09.655Z,13.70
2022-09-09T02:10:48.552Z,13.60
2022-09-09T02:13:17.244Z,13.60
2022-09-09T02:15:48.480Z,13.60
2022-09-09T02:18:16.242Z,13.60
2022-09-09T02:20:44.412Z,13.60
2022-09-09T02:23:12.011Z,13.60
2022-09-09T02:25:39.354Z,13.60
2022-09-09T02:28:08.075Z,13.50
2022-09-09T02:30:36.023Z,13.60
2022-09-09T02:33:05.084Z,13.60
2022-09-09T02:35:32.907Z,13.60
2022-09-09T02:38:01.292Z,13.60
2022-09-09T02:40:28.271Z,13.60
2022-09-09T02:42:55.492Z,13.70
2022-09-09T02:45:27.389Z,13.70
2022-09-09T02:48:04.939Z,13.80
2022-09-09T02:50:35.361Z,13.70
2022-09-09T02:53:18.568Z,13.70
2022-09-09T02:56:03.806Z,13.70
2022-09-09T02:58:30.950Z,13.70
2022-09-09T03:00:59.050Z,13.70
2022-09-09T03:03:26.243Z,13.70
2022-09-09T03:05:53.134Z,13.60
2022-09-09T03:08:20.393Z,13.60
2022-09-09T03:10:47.321Z,13.50
2022-09-09T03:13:16.444Z,13.50
2022-09-09T03:15:43.475Z,13.60
2022-09-09T03:18:10.529Z,13.50
2022-09-09T03:20:37.466Z,13.50
2022-09-09T03:23:04.577Z,13.50
2022-09-09T03:25:31.430Z,13.50
2022-09-09T03:27:58.487Z,13.50
2022-09-09T03:30:26.781Z,13.50
2022-09-09T03:32:53.726Z,13.40
2022-09-09T03:35:20.627Z,13.40
2022-09-09T03:37:47.581Z,13.40
2022-09-09T03:40:15.068Z,13.40
2022-09-09T03:42:42.118Z,13.40
2022-09-09T03:45:10.306Z,13.30
2022-09-09T03:47:37.412Z,13.40
2022-09-09T03:50:05.337Z,13.40
2022-09-09T03:52:32.450Z,13.50
2022-09-09T03:54:59.235Z,13.60
2022-09-09T03:57:26.151Z,13.60
2022-09-09T03:59:53.102Z,13.60
2022-09-09T04:02:19.945Z,13.70
2022-09-09T04:04:46.989Z,13.70
2022-09-09T04:07:13.951Z,13.60
2022-09-09T04:09:40.942Z,13.60
2022-09-09T04:12:07.890Z,13.60
2022-09-09T04:14:34.733Z,13.60
2022-09-09T04:17:01.606Z,13.60
2022-09-09T04:19:28.639Z,13.60
2022-09-09T04:21:55.685Z,13.60
2022-09-09T04:24:22.642Z,13.60
2022-09-09T04:26:50.157Z,13.60
2022-09-09T04:29:16.969Z,13.60
2022-09-09T04:31:43.885Z,13.60
2022-09-09T04:34:11.039Z,13.70
2022-09-09T04:36:37.857Z,13.70
2022-09-09T04:39:04.853Z,13.70
2022-09-09T04:41:32.494Z,13.70
2022-09-09T04:44:00.984Z,13.70
2022-09-09T04:46:27.967Z,13.70
2022-09-09T04:48:55.022Z,13.70
2022-09-09T04:51:22.513Z,13.70
2022-09-09T04:53:49.995Z,13.70
2022-09-09T04:56:18.482Z,13.70
2022-09-09T04:58:46.549Z,13.80
2022-09-09T05:01:15.079Z,13.80
2022-09-09T05:03:42.101Z,13.80
2022-09-09T05:06:10.658Z,13.80
2022-09-09T05:08:38.566Z,13.80
2022-09-09T05:11:13.671Z,13.80
2022-09-09T05:13:41.620Z,13.80
2022-09-09T05:16:08.573Z,13.80
2022-09-09T05:18:35.575Z,13.80
2022-09-09T05:21:02.942Z,13.80
2022-09-09T05:23:29.890Z,13.80
2022-09-09T05:25:58.273Z,13.80
2022-09-09T05:28:26.528Z,13.80
2022-09-09T05:31:01.820Z,13.80
2022-09-09T05:33:28.740Z,13.80
2022-09-09T05:35:58.977Z,13.80
2022-09-09T05:38:28.723Z,13.80
2022-09-09T05:40:57.103Z,13.80
2022-09-09T05:43:24.524Z,13.90
2022-09-09T05:46:05.521Z,13.90
2022-09-09T05:48:33.341Z,13.80
2022-09-09T05:51:00.522Z,13.90
2022-09-09T05:53:28.257Z,13.90
2022-09-09T05:56:04.601Z,13.90
2022-09-09T05:58:34.885Z,13.90
2022-09-09T06:01:05.561Z,14.00
2022-09-09T06:03:32.921Z,14.00
2022-09-09T06:06:00.715Z,14.00
2022-09-09T06:08:27.990Z,14.00
2022-09-09T06:10:55.128Z,14.00
2022-09-09T06:13:22.024Z,14.00
2022-09-09T06:15:52.387Z,14.10
2022-09-09T06:18:20.073Z,14.10
2022-09-09T06:20:57.411Z,14.20
2022-09-09T06:23:24.257Z,14.20
2022-09-09T06:25:52.117Z,14.20
2022-09-09T06:28:19.366Z,14.20
2022-09-09T06:30:46.204Z,14.20
2022-09-09T06:33:12.992Z,14.20
2022-09-09T06:35:39.955Z,14.20
2022-09-09T06:38:07.019Z,14.20
2022-09-09T06:40:34.085Z,14.20
2022-09-09T06:43:02.098Z,14.20
2022-09-09T06:45:29.587Z,14.20
2022-09-09T06:47:57.767Z,14.20
2022-09-09T06:50:24.744Z,14.20
2022-09-09T06:52:52.729Z,14.20
2022-09-09T06:55:21.011Z,14.20
2022-09-09T06:57:47.851Z,14.20
2022-09-09T07:00:15.125Z,14.20
2022-09-09T07:02:42.225Z,14.30
2022-09-09T07:05:09.523Z,14.30
2022-09-09T07:07:36.480Z,14.40
2022-09-09T07:10:05.186Z,14.50
2022-09-09T07:12:32.227Z,14.50
2022-09-09T07:14:59.092Z,14.40
2022-09-09T07:17:26.322Z,14.40
2022-09-09T07:19:53.490Z,14.40
2022-09-09T07:22:21.252Z,14.40
2022-09-09T07:24:48.169Z,14.40
2022-09-09T07:27:14.938Z,14.40
2022-09-09T07:29:41.987Z,14.40
2022-09-09T07:32:09.172Z,14.50
2022-09-09T07:34:36.279Z,14.60
2022-09-09T07:37:03.347Z,14.60
2022-09-09T07:39:30.626Z,14.60
2022-09-09T07:41:57.563Z,14.60
2022-09-09T07:44:28.057Z,14.50
2022-09-09T07:46:55.000Z,14.60
2022-09-09T07:49:28.575Z,14.60
2022-09-09T07:51:57.933Z,14.70
2022-09-09T07:54:24.846Z,14.80
2022-09-09T07:56:52.115Z,14.80
2022-09-09T07:59:19.902Z,14.70
2022-09-09T08:01:47.971Z,14.60
2022-09-09T08:04:16.750Z,14.60
2022-09-09T08:06:44.956Z,14.70
2022-09-09T08:09:11.756Z,14.60
2022-09-09T08:11:39.517Z,14.70
2022-09-09T08:14:08.761Z,14.70
2022-09-09T08:16:37.556Z,14.70
2022-09-09T08:19:05.088Z,14.80
2022-09-09T08:21:32.880Z,14.80
2022-09-09T08:24:00.944Z,14.80
2022-09-09T08:26:29.708Z,14.80
2022-09-09T08:28:57.648Z,14.80
2022-09-09T08:31:26.243Z,14.80
2022-09-09T08:33:53.530Z,14.70
2022-09-09T08:36:21.575Z,14.70
2022-09-09T08:38:49.200Z,14.80
2022-09-09T08:41:28.097Z,14.80
2022-09-09T08:44:05.925Z,14.80
2022-09-09T08:46:35.941Z,14.80
2022-09-09T08:49:05.743Z,15.00
2022-09-09T08:51:34.479Z,15.10
2022-09-09T08:54:03.241Z,15.20
2022-09-09T08:56:30.638Z,15.20
2022-09-09T08:59:00.395Z,15.10
2022-09-09T09:01:45.991Z,15.10
2022-09-09T09:04:18.997Z,15.00
2022-09-09T09:06:51.260Z,15.10
2022-09-09T09:09:31.461Z,15.20
2022-09-09T09:12:02.683Z,15.20
2022-09-09T09:14:31.684Z,15.10
2022-09-09T09:17:02.730Z,15.10
2022-09-09T09:19:31.247Z,15.10
2022-09-09T09:22:17.079Z,14.90
2022-09-09T09:24:55.330Z,14.90
2022-09-09T09:27:34.456Z,14.90
2022-09-09T09:32:52.427Z,15.10
2022-09-09T09:35:19.788Z,15.10
2022-09-09T09:40:35.290Z,15.10
2022-09-09T09:43:02.346Z,15.00
2022-09-09T09:45:33.021Z,15.00
2022-09-09T09:48:05.357Z,15.10
2022-09-09T09:50:34.550Z,15.10
2022-09-09T09:53:05.383Z,15.10
2022-09-09T09:55:34.721Z,15.10
2022-09-09T09:58:07.902Z,15.20
2022-09-09T10:00:37.133Z,15.30
2022-09-09T10:03:14.945Z,15.30
2022-09-09T10:05:46.461Z,15.30
2022-09-09T10:08:14.956Z,15.50
2022-09-09T10:10:56.807Z,15.50
2022-09-09T10:13:33.942Z,15.40
2022-09-09T10:16:18.178Z,15.40
2022-09-09T10:19:04.093Z,15.50
2022-09-09T10:21:49.804Z,15.40
2022-09-09T10:24:35.015Z,15.30
2022-09-09T10:27:21.329Z,15.30
2022-09-09T10:29:48.326Z,15.30
2022-09-09T10:32:15.148Z,15.30
2022-09-09T10:35:12.316Z,15.40
2022-09-09T10:37:39.192Z,15.50
2022-09-09T10:40:27.057Z,15.50
2022-09-09T10:42:58.017Z,15.50
2022-09-09T10:45:34.890Z,15.60
2022-09-09T10:48:10.939Z,15.60
2022-09-09T10:51:07.614Z,15.60
2022-09-09T10:53:34.468Z,15.50
2022-09-09T10:56:22.260Z,15.50
2022-09-09T10:58:54.823Z,15.60
2022-09-09T11:01:31.217Z,15.60
2022-09-09T11:04:10.121Z,15.60
2022-09-09T11:06:43.576Z,15.50
2022-09-09T11:09:15.432Z,15.60
2022-09-09T11:11:49.467Z,15.60
2022-09-09T11:14:21.661Z,15.60
2022-09-09T11:16:51.476Z,15.70
2022-09-09T11:19:23.135Z,15.70
2022-09-09T11:21:50.776Z,15.70
2022-09-09T11:24:27.080Z,15.80
2022-09-09T11:27:00.159Z,15.90
2022-09-09T11:29:34.369Z,16.00
2022-09-09T11:32:13.900Z,15.90
2022-09-09T11:34:50.531Z,15.70
2022-09-09T11:37:24.725Z,15.90
2022-09-09T11:40:15.221Z,15.90
2022-09-09T11:42:43.326Z,15.90
2022-09-09T11:45:20.630Z,16.00
2022-09-09T11:47:58.045Z,16.10
2022-09-09T11:50:24.822Z,16.10
2022-09-09T11:52:52.806Z,16.10
2022-09-09T11:55:34.122Z,16.20
2022-09-09T11:58:03.772Z,16.20
2022-09-09T12:00:45.682Z,16.20
2022-09-09T12:03:31.036Z,16.20
2022-09-09T12:05:58.681Z,16.10
2022-09-09T12:08:29.621Z,16.20
2022-09-09T12:10:58.700Z,16.30
2022-09-09T12:13:27.942Z,16.20
2022-09-09T12:15:58.718Z,16.00
2022-09-09T12:18:26.613Z,15.90
2022-09-09T12:21:03.062Z,15.90
2022-09-09T12:23:39.141Z,16.00
2022-09-09T12:26:24.959Z,16.00
2022-09-09T12:28:58.307Z,16.10
2022-09-09T12:31:25.497Z,16.20
2022-09-09T12:33:53.819Z,16.30
2022-09-09T12:36:28.377Z,16.30
2022-09-09T12:38:57.475Z,16.10
2022-09-09T12:41:25.689Z,16.00
2022-09-09T12:43:53.091Z,16.00
2022-09-09T12:46:34.914Z,15.90
2022-09-09T12:49:01.743Z,15.90
2022-09-09T12:51:30.429Z,15.80
2022-09-09T12:53:57.986Z,15.80
2022-09-09T12:56:32.288Z,15.70
2022-09-09T12:58:59.848Z,15.70
2022-09-09T13:01:28.351Z,15.70
2022-09-09T13:03:55.872Z,15.70
2022-09-09T13:06:28.810Z,15.70
2022-09-09T13:08:57.383Z,15.80
2022-09-09T13:11:50.775Z,15.90
2022-09-09T13:14:26.898Z,15.90
2022-09-09T13:17:01.062Z,16.00
2022-09-09T13:19:30.074Z,16.10
2022-09-09T13:21:56.957Z,16.10
2022-09-09T13:24:30.728Z,16.10
2022-09-09T13:27:04.726Z,16.10
2022-09-09T13:29:32.400Z,16.10
2022-09-09T13:32:06.338Z,16.10
2022-09-09T13:34:34.453Z,16.20
2022-09-09T13:37:06.896Z,16.30
2022-09-09T13:39:36.273Z,16.30
2022-09-09T13:42:04.306Z,16.20
2022-09-09T13:44:32.841Z,16.20
2022-09-09T13:47:18.774Z,16.10
2022-09-09T13:49:46.892Z,16.20
2022-09-09T13:52:20.714Z,16.20
2022-09-09T13:54:52.149Z,16.10
2022-09-09T13:57:23.613Z,16.10
2022-09-09T14:00:06.627Z,16.10
2022-09-09T14:02:34.690Z,16.10
2022-09-09T14:05:01.734Z,16.00
2022-09-09T14:07:28.488Z,15.90
2022-09-09T14:09:55.519Z,16.00
2022-09-09T14:12:22.694Z,16.10
2022-09-09T14:14:49.598Z,16.10
2022-09-09T14:17:16.874Z,16.00
2022-09-09T14:19:43.849Z,15.90
2022-09-09T14:22:10.946Z,15.80
2022-09-09T14:24:38.074Z,15.90
2022-09-09T14:27:05.358Z,15.80
2022-09-09T14:29:32.501Z,15.90
2022-09-09T14:32:02.092Z,15.80
2022-09-09T14:34:28.927Z,15.80
2022-09-09T14:36:55.881Z,15.80
2022-09-09T14:39:22.710Z,15.80
2022-09-09T14:41:49.546Z,15.70
2022-09-09T14:44:17.456Z,15.80
2022-09-09T14:46:44.659Z,15.80
2022-09-09T14:49:11.575Z,15.80
2022-09-09T14:51:38.592Z,15.70
2022-09-09T14:54:05.745Z,15.60
2022-09-09T14:56:35.612Z,15.60
2022-09-09T14:59:03.077Z,15.60
2022-09-09T15:01:31.089Z,15.50
2022-09-09T15:04:01.609Z,15.50
2022-09-09T15:06:30.369Z,15.50
2022-09-09T15:08:58.847Z,15.60
2022-09-09T15:11:27.271Z,15.60
2022-09-09T15:13:54.371Z,15.60
2022-09-09T15:16:22.719Z,15.60
2022-09-09T15:18:52.699Z,15.50
2022-09-09T15:21:21.043Z,15.50
2022-09-09T15:23:49.178Z,15.40
2022-09-09T15:26:16.614Z,15.40
2022-09-09T15:28:44.932Z,15.30
2022-09-09T15:31:16.255Z,15.30
2022-09-09T15:33:47.532Z,15.30
2022-09-09T15:36:17.507Z,15.30
2022-09-09T15:38:45.047Z,15.20
2022-09-09T15:41:13.331Z,15.20
2022-09-09T15:43:40.503Z,15.20
2022-09-09T15:46:28.488Z,15.10
2022-09-09T15:48:56.882Z,15.20
2022-09-09T15:51:41.573Z,15.10
2022-09-09T15:54:10.573Z,15.10
2022-09-09T15:56:37.331Z,15.10
2022-09-09T15:59:04.395Z,15.20
2022-09-09T16:01:32.148Z,15.10
2022-09-09T16:03:59.952Z,15.10
2022-09-09T16:06:29.372Z,15.10
2022-09-09T16:08:57.391Z,15.10
2022-09-09T16:11:25.706Z,15.00
2022-09-09T16:13:55.210Z,15.00
2022-09-09T16:16:23.539Z,14.90
2022-09-09T16:18:53.005Z,14.90
2022-09-09T16:21:22.057Z,14.80
2022-09-09T16:23:50.681Z,14.80
2022-09-09T16:26:18.627Z,14.80
2022-09-09T16:28:47.492Z,14.70
2022-09-09T16:31:15.650Z,14.70
2022-09-09T16:33:42.779Z,14.70
2022-09-09T16:36:11.440Z,14.70
2022-09-09T16:38:38.355Z,14.70
2022-09-09T16:41:06.858Z,14.60
2022-09-09T16:43:34.520Z,14.60
2022-09-09T16:46:05.670Z,14.60
2022-09-09T16:48:35.590Z,14.60
2022-09-09T16:51:06.741Z,14.60
2022-09-09T16:53:36.784Z,14.60
2022-09-09T16:56:10.977Z,14.60
2022-09-09T16:58:38.035Z,14.60
2022-09-09T17:01:05.356Z,14.50
2022-09-09T17:03:33.753Z,14.60
2022-09-09T17:06:03.157Z,14.60
2022-09-09T17:08:30.749Z,14.60
2022-09-09T17:10:58.555Z,14.60
2022-09-09T17:13:26.349Z,14.60
2022-09-09T17:15:53.348Z,14.60
2022-09-09T17:18:21.680Z,14.60
2022-09-09T17:20:48.703Z,14.60
2022-09-09T17:23:16.512Z,14.60
2022-09-09T17:25:44.362Z,14.50
2022-09-09T17:28:11.267Z,14.60
2022-09-09T17:30:38.608Z,14.50
2022-09-09T17:33:05.747Z,14.60
2022-09-09T17:35:32.737Z,14.60
2022-09-09T17:37:59.805Z,14.60
2022-09-09T17:40:26.823Z,14.60
2022-09-09T17:42:53.719Z,14.60
2022-09-09T17:45:20.607Z,14.60
2022-09-09T17:47:47.806Z,14.60
2022-09-09T17:50:14.979Z,14.60
2022-09-09T17:52:41.854Z,14.60
2022-09-09T17:55:10.440Z,14.60
2022-09-09T17:57:37.228Z,14.60
2022-09-09T18:00:06.205Z,14.60
2022-09-09T18:02:33.065Z,14.60
2022-09-09T18:05:00.315Z,14.70
2022-09-09T18:07:27.276Z,14.70
2022-09-09T18:09:54.233Z,14.60
2022-09-09T18:12:21.160Z,14.60
2022-09-09T18:14:48.632Z,14.60
2022-09-09T18:17:15.628Z,14.70
2022-09-09T18:19:42.523Z,14.60
2022-09-09T18:22:09.406Z,14.70
2022-09-09T18:24:36.843Z,14.70
2022-09-09T18:27:04.019Z,14.70
2022-09-09T18:29:31.312Z,14.70
2022-09-09T18:31:58.185Z,14.70
2022-09-09T18:34:30.270Z,14.70
2022-09-09T18:36:57.175Z,14.70
2022-09-09T18:39:25.598Z,14.80
2022-09-09T18:41:53.966Z,14.80
2022-09-09T18:44:22.483Z,14.80
2022-09-09T18:46:49.747Z,14.80
2022-09-09T18:49:16.722Z,14.80
2022-09-09T18:51:44.487Z,14.80
2022-09-09T18:54:22.093Z,14.80
2022-09-09T18:56:49.433Z,14.80
2022-09-09T18:59:19.827Z,14.80
2022-09-09T19:01:47.138Z,14.80
2022-09-09T19:04:14.733Z,14.80
2022-09-09T19:06:43.156Z,14.80
2022-09-09T19:09:11.533Z,14.80
2022-09-09T19:11:38.848Z,14.80
2022-09-09T19:14:08.137Z,14.80
2022-09-09T19:16:35.641Z,14.90
2022-09-09T19:19:04.726Z,14.80
2022-09-09T19:21:33.651Z,14.90
2022-09-09T19:24:01.756Z,14.80
2022-09-09T19:26:29.766Z,14.90
2022-09-09T19:28:58.072Z,14.90
2022-09-09T19:31:25.296Z,14.90
2022-09-09T19:33:52.687Z,14.90
2022-09-09T19:36:19.741Z,14.90
2022-09-09T19:38:46.770Z,14.90
2022-09-09T19:41:14.998Z,14.80
2022-09-09T19:43:42.148Z,14.90
2022-09-09T19:46:11.823Z,14.80
2022-09-09T19:48:41.127Z,14.90
2022-09-09T19:51:09.527Z,14.90
2022-09-09T19:53:37.882Z,14.90
2022-09-09T19:56:05.197Z,14.80
2022-09-09T19:58:35.830Z,14.90
2022-09-09T20:01:29.048Z,14.80
2022-09-09T20:03:57.590Z,14.90
2022-09-09T20:06:29.310Z,14.90
2022-09-09T20:08:57.020Z,14.80
2022-09-09T20:11:25.127Z,14.90
2022-09-09T20:13:52.042Z,14.90
2022-09-09T20:16:20.555Z,14.90
2022-09-09T20:18:50.633Z,14.80
2022-09-09T20:21:20.806Z,14.90
2022-09-09T20:23:48.684Z,14.90
2022-09-09T20:26:17.649Z,14.80
2022-09-09T20:28:45.063Z,14.90
2022-09-09T20:31:14.042Z,14.80
2022-09-09T20:33:41.882Z,14.90
2022-09-09T20:36:16.367Z,14.90
2022-09-09T20:38:48.324Z,14.90
2022-09-09T20:41:18.588Z,14.90
2022-09-09T20:43:47.075Z,14.90
2022-09-09T20:46:14.131Z,14.90
2022-09-09T20:48:42.262Z,14.90
2022-09-09T20:51:10.873Z,14.90
2022-09-09T20:53:38.089Z,14.90
2022-09-09T20:56:05.871Z,14.90
2022-09-09T20:58:33.637Z,14.90
2022-09-09T21:01:00.992Z,14.90
2022-09-09T21:03:32.262Z,14.90
2022-09-09T21:06:01.930Z,14.90
2022-09-09T21:08:30.419Z,14.90
2022-09-09T21:10:57.927Z,14.90
2022-09-09T21:13:24.839Z,14.90
2022-09-09T21:15:52.103Z,15.00
2022-09-09T21:18:19.439Z,15.00
2022-09-09T21:20:46.654Z,14.90
2022-09-09T21:23:14.193Z,15.00
2022-09-09T21:25:41.186Z,15.00
2022-09-09T21:28:08.585Z,15.00
2022-09-09T21:30:41.878Z,14.90
2022-09-09T21:33:12.662Z,14.90
2022-09-09T21:35:40.289Z,15.00
2022-09-09T21:38:08.056Z,14.90
2022-09-09T21:40:37.727Z,14.90
2022-09-09T21:43:11.010Z,14.90
2022-09-09T21:45:41.387Z,14.90
2022-09-09T21:48:09.466Z,14.90
2022-09-09T21:50:39.346Z,14.90
2022-09-09T21:53:06.746Z,14.80
2022-09-09T21:55:41.823Z,14.80
2022-09-09T21:58:09.151Z,14.80
2022-09-09T22:00:36.383Z,14.80
2022-09-09T22:03:03.780Z,14.70
2022-09-09T22:05:31.577Z,14.70
2022-09-09T22:07:58.686Z,14.70
2022-09-09T22:10:27.592Z,14.70
2022-09-09T22:12:54.459Z,14.70
2022-09-09T22:15:21.429Z,14.60
2022-09-09T22:17:49.202Z,14.60
2022-09-09T22:20:16.204Z,14.60
2022-09-09T22:22:43.083Z,14.50
2022-09-09T22:25:10.036Z,14.50
2022-09-09T22:27:36.898Z,14.50
2022-09-09T22:30:03.989Z,14.50
2022-09-09T22:32:31.313Z,14.50
2022-09-09T22:34:58.994Z,14.50
2022-09-09T22:37:26.366Z,14.50
2022-09-09T22:39:53.328Z,14.40
2022-09-09T22:42:20.200Z,14.40
2022-09-09T22:44:47.040Z,14.40
2022-09-09T22:47:13.993Z,14.30
2022-09-09T22:49:40.798Z,14.20
2022-09-09T22:52:08.896Z,14.10
2022-09-09T22:54:35.857Z,14.00
2022-09-09T22:57:02.826Z,13.90
2022-09-09T22:59:29.762Z,13.90
2022-09-09T23:01:58.995Z,13.80
2022-09-09T23:04:26.253Z,13.80
2022-09-09T23:06:53.408Z,13.70
2022-09-09T23:09:20.229Z,13.50
2022-09-09T23:11:47.774Z,13.50
2022-09-09T23:14:15.161Z,13.40
2022-09-09T23:16:45.161Z,13.40
2022-09-09T23:19:16.075Z,13.40
2022-09-09T23:21:44.358Z,13.30
2022-09-09T23:24:12.058Z,13.20
2022-09-09T23:26:39.255Z,13.10
2022-09-09T23:29:06.290Z,13.00
2022-09-09T23:31:34.194Z,13.00
2022-09-09T23:34:01.332Z,13.00
2022-09-09T23:36:31.583Z,12.90
2022-09-09T23:38:59.600Z,12.80
2022-09-09T23:41:27.109Z,12.70
2022-09-09T23:43:53.951Z,12.60
2022-09-09T23:46:22.441Z,12.50
2022-09-09T23:48:51.764Z,12.50
2022-09-09T23:51:19.952Z,12.50
2022-09-09T23:53:51.197Z,12.40
2022-09-09T23:56:18.997Z,12.40
2022-09-09T23:58:46.142Z,12.40
